Terminal Aerodrome Forecast
Issued by NWS Blacksburg, VA

Current Version | Previous Version | Text Only | Print | Product List | Glossary Off
Versions: 1 2 3 4 5 6 7 8 9 10 11 12 13 14 15 16 17 18 19 20 21 22 23 24 25 26 27 28 29 30 31 32

000
FTUS41 KRNK 280544 AAA
TAFBLF
TAF AMD
KBLF 280544Z 2806/2906 25005KT P6SM BKN060
     FM281400 23006KT P6SM BKN035
     FM281700 24007KT P6SM VCSH BKN070
     FM282300 25008KT P6SM OVC060
     FM290300 25008KT P6SM BKN020=

USA.gov is the U.S. government's official web portal to all federal, state and local government web resources and services.